Time;durP1;ratioP1;P1;durP2;ratioP2;P2;SDS_P1;SDS_P2;PMS_P1;PMS_P2;Temp;Humidity;BMP_temperature;BMP_pressure;BME280_temperature;BME280_humidity;BME280_pressure;Samples;Min_cycle;Max_cycle;Signal;HPM_P1;HPM_P2
2022/09/04 00:00:52;;;;;;;1.27;0.90;;;;;;;17.52;47.88;101390.50;6274587;28;20056;-75
2022/09/04 00:04:00;;;;;;;1.65;0.85;;;;;;;17.49;48.19;101388.94;6274001;28;20056;-75
2022/09/04 00:07:12;;;;;;;0.88;0.80;;;;;;;17.43;47.97;101393.81;6274924;28;20053;-75
2022/09/04 00:10:22;;;;;;;1.58;0.75;;;;;;;17.37;48.78;101397.78;6274403;28;20052;-75
2022/09/04 00:13:27;;;;;;;2.78;1.17;;;;;;;17.33;48.78;101398.94;6274103;28;20053;-75
2022/09/04 00:16:41;;;;;;;1.17;0.80;;;;;;;17.32;49.18;101396.41;6273723;28;20045;-75
2022/09/04 00:19:49;;;;;;;2.80;1.10;;;;;;;17.25;49.48;101395.97;6273619;28;20060;-75
2022/09/04 00:22:59;;;;;;;1.30;1.08;;;;;;;17.18;49.15;101400.03;6274074;28;20057;-75
2022/09/04 00:26:04;;;;;;;2.10;1.15;;;;;;;17.12;49.31;101396.03;6273810;28;20040;-75
2022/09/04 00:29:14;;;;;;;0.93;0.80;;;;;;;17.08;49.84;101393.66;6273541;28;20053;-75
2022/09/04 00:32:33;;;;;;;1.20;0.70;;;;;;;17.05;49.82;101397.41;6273072;28;20385;-75
2022/09/04 00:35:37;;;;;;;0.80;0.70;;;;;;;17.03;49.73;101406.41;6273389;28;20164;-74
2022/09/04 00:38:46;;;;;;;1.33;1.00;;;;;;;16.97;50.26;101410.34;6273260;28;20053;-75
2022/09/04 00:42:02;;;;;;;4.70;0.70;;;;;;;16.93;49.92;101414.16;6272691;28;20057;-75
2022/09/04 00:45:15;;;;;;;1.70;0.90;;;;;;;16.89;50.40;101418.84;6272814;28;20045;-75
2022/09/04 00:48:58;;;;;;;5.00;0.90;;;;;;;16.92;50.94;101421.28;6273517;28;20064;-75
2022/09/04 00:52:10;;;;;;;0.73;0.73;;;;;;;16.91;50.81;101424.06;6272724;28;20049;-75
2022/09/04 00:55:28;;;;;;;1.55;0.82;;;;;;;16.88;50.57;101430.41;6275302;28;20049;-74
2022/09/04 00:58:39;;;;;;;1.23;0.82;;;;;;;16.84;51.02;101425.44;6273094;28;20045;-75
2022/09/04 01:01:43;;;;;;;0.95;0.70;;;;;;;16.84;50.79;101422.78;6272926;28;20512;-75
2022/09/04 01:04:57;;;;;;;1.70;1.20;;;;;;;16.83;50.86;101424.59;6273296;28;20488;-75
2022/09/04 01:08:08;;;;;;;1.52;1.00;;;;;;;16.80;51.11;101423.94;6273368;28;20045;-75
2022/09/04 01:11:18;;;;;;;2.65;1.10;;;;;;;16.73;51.02;101426.19;6277334;28;20053;-75
2022/09/04 01:14:28;;;;;;;1.80;0.90;;;;;;;16.67;51.52;101429.22;6277360;28;20057;-75
2022/09/04 01:17:37;;;;;;;1.90;1.08;;;;;;;16.59;51.57;101429.75;6277424;28;20068;-75
2022/09/04 01:20:52;;;;;;;1.15;0.90;;;;;;;16.55;52.18;101433.53;6277327;28;20041;-75
2022/09/04 01:24:18;;;;;;;1.35;0.88;;;;;;;16.44;51.97;101434.28;6277485;28;20128;-75
2022/09/04 01:27:26;;;;;;;1.23;0.90;;;;;;;16.42;52.14;101441.47;6276938;28;20045;-75
2022/09/04 01:30:34;;;;;;;3.65;1.23;;;;;;;16.34;52.37;101438.47;6276898;28;20060;-75
2022/09/04 01:33:42;;;;;;;0.90;0.80;;;;;;;16.28;52.99;101436.25;6276970;28;20044;-75
2022/09/04 01:36:53;;;;;;;1.05;0.90;;;;;;;16.26;53.41;101442.59;6276949;28;20156;-75
2022/09/04 01:40:09;;;;;;;1.15;0.82;;;;;;;16.21;53.42;101442.88;6276593;28;20056;-75
2022/09/04 01:43:16;;;;;;;1.10;0.80;;;;;;;16.18;53.73;101453.72;6277027;28;20489;-75
2022/09/04 01:46:38;;;;;;;1.50;1.02;;;;;;;16.14;53.85;101446.91;6276221;28;20072;-75
2022/09/04 01:49:45;;;;;;;2.25;0.80;;;;;;;16.10;53.89;101453.38;6276152;28;20049;-74
2022/09/04 01:52:53;;;;;;;1.20;0.90;;;;;;;16.06;54.16;101457.16;6276461;28;20057;-75
2022/09/04 01:56:03;;;;;;;1.10;0.90;;;;;;;16.00;54.46;101458.41;6276340;28;20052;-75
2022/09/04 01:59:15;;;;;;;1.52;0.98;;;;;;;15.94;54.84;101457.03;6276191;28;20492;-75
2022/09/04 02:02:24;;;;;;;1.60;0.80;;;;;;;15.91;54.78;101459.84;6275781;28;20053;-75
2022/09/04 02:05:34;;;;;;;1.52;0.85;;;;;;;15.87;55.06;101457.50;6275672;28;20416;-75
2022/09/04 02:08:54;;;;;;;1.15;1.00;;;;;;;15.77;55.57;101459.03;6275884;28;20763;-75
2022/09/04 02:12:03;;;;;;;0.70;0.57;;;;;;;15.75;55.87;101452.97;6254948;28;20053;-75
2022/09/04 02:15:12;;;;;;;;;;;;;;;15.71;56.04;101455.84;6251349;28;20057;-75
2022/09/04 02:18:22;;;;;;;3.80;1.17;;;;;;;15.69;55.90;101465.66;6250464;28;19943;-75
2022/09/04 02:21:31;;;;;;;2.17;1.15;;;;;;;15.65;55.96;101469.47;6251083;28;20049;-75
2022/09/04 02:24:39;;;;;;;1.25;0.90;;;;;;;15.65;56.19;101471.25;6249373;28;20818;-74
2022/09/04 02:27:52;;;;;;;1.25;1.05;;;;;;;15.60;56.19;101468.03;6250745;28;20050;-75
2022/09/04 02:31:04;;;;;;;0.82;0.77;;;;;;;15.59;56.41;101469.81;6250722;28;20481;-75
2022/09/04 02:34:09;;;;;;;1.13;0.73;;;;;;;15.55;56.65;101468.31;6250585;28;20049;-75
2022/09/04 02:37:18;;;;;;;1.67;1.02;;;;;;;15.56;56.62;101469.16;6250899;28;20135;-75
2022/09/04 02:40:29;;;;;;;1.20;1.10;;;;;;;15.60;57.00;101468.88;6250181;28;20053;-75
2022/09/04 02:43:50;;;;;;;1.23;0.80;;;;;;;15.60;56.77;101468.88;6250706;28;20129;-75
2022/09/04 02:47:06;;;;;;;1.20;0.90;;;;;;;15.58;56.46;101468.13;6250657;28;20045;-75
2022/09/04 02:50:14;;;;;;;0.90;0.80;;;;;;;15.56;56.69;101459.41;6250064;28;20060;-74
2022/09/04 02:53:25;;;;;;;3.15;1.10;;;;;;;15.57;56.55;101460.25;6250575;28;20058;-75
2022/09/04 02:56:39;;;;;;;1.33;0.95;;;;;;;15.53;56.87;101467.53;6249973;28;20056;-75
2022/09/04 02:59:52;;;;;;;1.80;1.10;;;;;;;15.54;56.80;101479.00;6250096;28;20053;-75
2022/09/04 03:03:05;;;;;;;3.13;1.50;;;;;;;15.46;56.83;101477.69;6250040;28;20253;-75
2022/09/04 03:06:12;;;;;;;1.20;0.80;;;;;;;15.42;57.49;101485.91;6249698;28;20057;-75
2022/09/04 03:09:20;;;;;;;1.48;0.77;;;;;;;15.38;57.54;101482.59;6249782;28;20045;-75
2022/09/04 03:12:32;;;;;;;1.45;0.90;;;;;;;15.31;57.72;101483.94;6249280;28;20076;-75
2022/09/04 03:15:41;;;;;;;3.13;0.80;;;;;;;15.31;58.07;101483.94;6249348;28;20053;-75
2022/09/04 03:19:02;;;;;;;2.05;1.02;;;;;;;15.27;57.82;101479.78;6249575;28;20080;-75
2022/09/04 03:22:10;;;;;;;1.40;1.10;;;;;;;15.23;58.18;101480.91;6249651;28;20054;-75
2022/09/04 03:25:44;;;;;;;2.17;0.93;;;;;;;15.15;58.80;101484.00;6247381;28;20037;-75
2022/09/04 03:29:08;;;;;;;6.93;1.58;;;;;;;15.16;58.71;101482.19;6247542;28;20176;-75
2022/09/04 03:32:17;;;;;;;4.45;0.95;;;;;;;15.09;58.70;101483.53;6244601;28;20045;-75
2022/09/04 03:35:29;;;;;;;1.55;0.90;;;;;;;15.04;58.79;101475.88;6247648;28;20048;-75
2022/09/04 03:38:39;;;;;;;1.88;1.08;;;;;;;15.04;59.02;101480.31;6242821;28;20520;-75
2022/09/04 03:41:50;;;;;;;1.33;1.00;;;;;;;15.04;59.57;101489.09;6247770;28;20056;-75
2022/09/04 03:45:07;;;;;;;3.15;1.10;;;;;;;15.02;59.00;101484.84;6249289;28;20140;-75
2022/09/04 03:48:25;;;;;;;2.03;0.95;;;;;;;15.01;59.03;101486.63;6248690;28;20049;-75
2022/09/04 03:51:39;;;;;;;2.63;1.05;;;;;;;14.99;59.00;101491.19;6248692;28;20053;-75
2022/09/04 03:54:55;;;;;;;1.35;1.20;;;;;;;14.95;59.32;101490.50;6248413;28;20053;-74
2022/09/04 03:58:10;;;;;;;2.08;1.05;;;;;;;14.93;59.39;101510.91;6248766;28;20049;-75
2022/09/04 04:01:21;;;;;;;1.45;1.00;;;;;;;14.87;59.40;101506.00;6248671;28;20053;-75
2022/09/04 04:04:47;;;;;;;2.38;1.00;;;;;;;14.81;59.92;101493.13;6248689;28;20500;-75
2022/09/04 04:08:03;;;;;;;5.20;1.23;;;;;;;14.80;60.19;101501.97;6248604;28;20049;-75
2022/09/04 04:11:18;;;;;;;2.35;1.10;;;;;;;14.74;60.70;101510.28;6248634;28;20053;-75
2022/09/04 04:14:36;;;;;;;8.00;1.90;;;;;;;14.72;60.51;101517.47;6248334;28;20112;-75
2022/09/04 04:18:12;;;;;;;6.00;1.38;;;;;;;14.67;60.85;101522.16;6247845;28;20053;-75
2022/09/04 04:21:23;;;;;;;3.47;1.17;;;;;;;14.68;60.99;101518.59;6215626;28;20512;-76
2022/09/04 04:24:37;;;;;;;1.90;1.30;;;;;;;14.65;60.95;101516.97;6248276;28;20132;-75
2022/09/04 04:27:52;;;;;;;4.43;1.30;;;;;;;14.63;60.90;101513.56;6248249;28;20056;-75
2022/09/04 04:31:05;;;;;;;2.80;1.25;;;;;;;14.65;60.87;101519.63;6247914;28;20052;-75
2022/09/04 04:34:15;;;;;;;2.42;1.20;;;;;;;14.64;61.37;101525.84;6248006;28;20068;-75
2022/09/04 04:37:25;;;;;;;1.75;1.02;;;;;;;14.64;61.05;101535.59;6248326;28;20053;-75
2022/09/04 04:40:41;;;;;;;1.67;1.20;;;;;;;14.70;60.90;101541.38;6247585;28;20057;-75
2022/09/04 04:43:55;;;;;;;2.25;1.30;;;;;;;14.73;61.09;101542.16;6250565;28;20050;-75
2022/09/04 04:47:10;;;;;;;3.15;1.10;;;;;;;14.70;61.13;101549.31;6253308;28;20049;-75
2022/09/04 04:50:21;;;;;;;2.70;1.20;;;;;;;14.70;61.20;101549.31;6252705;28;20049;-74
2022/09/04 04:53:30;;;;;;;2.05;1.05;;;;;;;14.66;60.95;101558.34;6253323;28;20061;-75
2022/09/04 04:56:44;;;;;;;1.38;1.10;;;;;;;14.68;61.39;101558.28;6252777;28;20053;-74
2022/09/04 04:59:54;;;;;;;5.93;1.83;;;;;;;14.70;61.51;101559.88;6253044;28;20053;-74
2022/09/04 05:03:03;;;;;;;2.13;1.20;;;;;;;14.73;61.28;101566.81;6252885;28;20115;-74
2022/09/04 05:06:14;;;;;;;1.45;1.05;;;;;;;14.74;60.53;101571.16;6252513;28;20056;-75
2022/09/04 05:09:25;;;;;;;4.32;1.40;;;;;;;14.74;61.33;101571.16;6252445;28;20409;-75
2022/09/04 05:12:48;;;;;;;4.38;1.38;;;;;;;14.76;60.80;101574.59;6252099;28;20136;-75
2022/09/04 05:16:00;;;;;;;1.73;1.23;;;;;;;14.77;61.25;101575.44;6251892;28;20050;-75
2022/09/04 05:19:08;;;;;;;1.70;0.90;;;;;;;14.77;61.07;101576.28;6252316;28;20056;-75
2022/09/04 05:22:18;;;;;;;1.63;1.05;;;;;;;14.77;61.21;101588.66;6251454;28;20057;-75
2022/09/04 05:25:27;;;;;;;1.50;1.30;;;;;;;14.68;61.55;101588.25;6251475;28;20139;-75
2022/09/04 05:28:33;;;;;;;;;;;;;;;14.67;61.59;101591.84;6252016;28;20048;-74
2022/09/04 05:31:42;;;;;;;3.10;1.35;;;;;;;14.69;61.66;101592.59;6251572;28;19921;-75
2022/09/04 05:35:03;;;;;;;2.10;1.30;;;;;;;14.71;62.34;101593.34;6251469;28;20064;-74
2022/09/04 05:38:11;;;;;;;5.70;1.30;;;;;;;14.79;61.90;101603.50;6251522;28;20065;-74
2022/09/04 05:41:21;;;;;;;1.77;1.25;;;;;;;14.82;61.73;101605.97;6251435;28;20056;-75
2022/09/04 05:44:45;;;;;;;5.32;1.20;;;;;;;14.80;61.98;101604.34;6250572;28;20052;-75
2022/09/04 05:48:01;;;;;;;2.15;1.00;;;;;;;14.87;62.00;101611.00;6251657;28;20493;-75
2022/09/04 05:51:29;;;;;;;2.22;1.25;;;;;;;14.88;62.22;101618.00;6251285;28;20481;-75
2022/09/04 05:55:15;;;;;;;4.38;1.50;;;;;;;14.89;62.33;101617.88;6250111;28;20049;-75
2022/09/04 05:58:38;;;;;;;7.95;1.45;;;;;;;14.95;62.11;101624.66;6231004;28;20412;-75
2022/09/04 06:02:00;;;;;;;3.85;1.25;;;;;;;14.99;61.90;101612.94;6250810;28;20568;-74
2022/09/04 06:05:17;;;;;;;3.47;1.23;;;;;;;15.07;61.92;101623.91;6247959;28;20413;-78
2022/09/04 06:08:34;;;;;;;3.85;1.20;;;;;;;15.09;61.71;101619.41;6244727;28;20467;-76
2022/09/04 06:11:57;;;;;;;1.85;1.40;;;;;;;15.18;61.90;101624.16;6253045;28;20041;-75
2022/09/04 06:15:12;;;;;;;2.08;1.10;;;;;;;15.20;61.25;101624.91;6246482;28;20049;-76
2022/09/04 06:18:35;;;;;;;1.83;1.55;;;;;;;15.23;61.95;101631.84;6232470;28;20573;-74
2022/09/04 06:22:01;;;;;;;2.78;1.23;;;;;;;15.31;61.50;101631.41;6235998;28;20041;-74
2022/09/04 06:25:16;;;;;;;3.03;1.48;;;;;;;15.35;61.60;101623.19;6244658;28;20568;-76
2022/09/04 06:28:33;;;;;;;2.67;1.33;;;;;;;15.33;61.81;101627.69;6248602;28;20090;-75
2022/09/04 06:31:51;;;;;;;3.38;1.65;;;;;;;15.39;62.10;101629.13;6249363;28;20060;-75
2022/09/04 06:35:09;;;;;;;1.63;1.10;;;;;;;15.44;61.89;101627.94;6249979;28;20524;-74
2022/09/04 06:38:24;;;;;;;2.13;1.20;;;;;;;15.46;61.87;101625.19;6250404;28;20516;-75
2022/09/04 06:41:43;;;;;;;2.05;1.10;;;;;;;15.53;62.31;101621.19;6248479;28;20042;-75
2022/09/04 06:44:56;;;;;;;3.95;1.60;;;;;;;15.53;61.87;101623.84;6249636;28;20060;-75
2022/09/04 06:48:08;;;;;;;8.15;1.33;;;;;;;15.64;61.47;101626.75;6249805;28;20493;-75
2022/09/04 06:51:25;;;;;;;2.78;1.40;;;;;;;15.68;61.58;101620.31;6250166;28;20428;-74
2022/09/04 06:54:40;;;;;;;1.70;1.20;;;;;;;15.72;61.51;101629.78;6249668;28;20507;-75
2022/09/04 06:58:00;;;;;;;2.17;1.60;;;;;;;15.79;61.36;101629.41;6249810;28;20049;-74
2022/09/04 07:01:07;;;;;;;4.65;1.55;;;;;;;15.82;61.62;101631.88;6249222;28;20068;-74
2022/09/04 07:04:19;;;;;;;4.68;1.60;;;;;;;15.87;61.89;101643.91;6249475;28;20448;-75
2022/09/04 07:07:29;;;;;;;1.30;1.20;;;;;;;16.00;61.54;101648.47;6248785;28;20054;-74
2022/09/04 07:10:35;;;;;;;1.70;1.42;;;;;;;16.01;61.94;101645.69;6249265;28;20489;-75
2022/09/04 07:13:50;;;;;;;3.72;1.65;;;;;;;16.03;61.55;101651.75;6249764;28;20053;-75
2022/09/04 07:17:03;;;;;;;4.50;1.58;;;;;;;16.07;62.12;101652.41;6249542;28;20059;-75
2022/09/04 07:20:12;;;;;;;4.10;1.60;;;;;;;16.10;61.94;101652.25;6248722;28;20053;-75
2022/09/04 07:23:24;;;;;;;3.40;1.58;;;;;;;16.15;62.35;101658.09;6249662;28;20072;-75
2022/09/04 07:26:36;;;;;;;2.10;1.63;;;;;;;16.21;62.52;101668.31;6249336;28;20058;-74
2022/09/04 07:29:41;;;;;;;2.58;1.35;;;;;;;16.33;61.76;101675.53;6249016;28;20056;-74
2022/09/04 07:32:49;;;;;;;2.70;1.80;;;;;;;16.38;62.01;101672.59;6249234;28;20049;-75
2022/09/04 07:35:57;;;;;;;3.17;1.77;;;;;;;16.41;61.68;101673.25;6248762;28;20489;-75
2022/09/04 07:39:07;;;;;;;3.03;1.20;;;;;;;16.46;62.04;101687.06;6249091;28;20045;-75
2022/09/04 07:42:14;;;;;;;2.00;1.23;;;;;;;16.54;61.67;101681.28;6248595;28;20049;-75
2022/09/04 07:45:28;;;;;;;3.42;1.50;;;;;;;16.57;61.81;101680.22;6248472;28;20053;-75
2022/09/04 07:48:34;;;;;;;4.45;1.70;;;;;;;16.63;61.72;101690.47;6248701;28;20417;-75
2022/09/04 07:51:42;;;;;;;2.08;1.38;;;;;;;16.69;62.02;101688.25;6248246;28;20049;-75
2022/09/04 07:55:11;;;;;;;3.55;1.63;;;;;;;16.83;61.51;101676.78;6248347;28;20050;-75
2022/09/04 07:58:44;;;;;;;1.60;1.50;;;;;;;16.88;61.56;101687.97;6248892;28;20627;-75
2022/09/04 08:01:58;;;;;;;3.33;1.50;;;;;;;16.95;61.08;101689.28;6248559;28;20053;-75
2022/09/04 08:05:16;;;;;;;2.78;1.23;;;;;;;16.99;61.30;101696.09;6248356;28;20049;-75
2022/09/04 08:08:51;;;;;;;4.15;1.70;;;;;;;17.05;61.39;101691.34;6248344;28;20046;-75
2022/09/04 08:12:07;;;;;;;3.10;1.80;;;;;;;17.13;61.34;101705.81;6247843;28;20459;-75
2022/09/04 08:15:18;;;;;;;3.15;1.50;;;;;;;17.22;60.49;101699.91;6247821;28;20057;-75
2022/09/04 08:18:42;;;;;;;1.95;1.50;;;;;;;17.27;60.85;101706.72;6247699;28;20045;-75
2022/09/04 08:21:44;;;;;;;1.63;1.25;;;;;;;17.32;60.90;101709.91;6247163;28;20053;-75
2022/09/04 08:25:02;;;;;;;3.40;1.50;;;;;;;17.36;61.15;101701.63;6246345;28;20054;-76
2022/09/04 08:28:26;;;;;;;4.32;1.60;;;;;;;17.45;61.16;101702.84;6246683;28;20068;-76
2022/09/04 08:31:30;;;;;;;2.33;1.52;;;;;;;17.58;60.43;101709.03;6246304;28;20501;-76
2022/09/04 08:34:54;;;;;;;3.42;2.00;;;;;;;17.67;60.39;101699.59;6240517;28;20046;-76
2022/09/04 08:38:10;;;;;;;1.90;1.17;;;;;;;17.71;60.09;101709.03;6247379;28;20053;-75
2022/09/04 08:41:45;;;;;;;2.13;1.40;;;;;;;17.75;60.67;101706.09;6261224;28;20049;-75
2022/09/04 08:45:21;;;;;;;2.80;1.50;;;;;;;17.89;60.50;101704.28;6257848;28;20418;-76
2022/09/04 08:48:58;;;;;;;2.33;1.38;;;;;;;17.99;60.46;101708.91;6246044;28;20409;-75
2022/09/04 08:52:26;;;;;;;4.88;1.95;;;;;;;18.11;59.53;101711.66;6225919;28;20425;-75
2022/09/04 08:55:44;;;;;;;4.05;1.70;;;;;;;18.29;59.30;101717.50;6246239;28;20052;-74
2022/09/04 08:59:27;;;;;;;3.70;1.67;;;;;;;18.33;58.74;101711.00;6246114;28;20409;-75
2022/09/04 09:02:52;;;;;;;2.80;1.83;;;;;;;18.38;58.97;101704.38;6224315;28;20049;-74
2022/09/04 09:06:15;;;;;;;2.45;1.80;;;;;;;18.47;58.97;101714.38;6251511;28;20052;-73
2022/09/04 09:09:47;;;;;;;10.23;2.13;;;;;;;18.63;58.28;101707.97;6224898;28;20045;-74
2022/09/04 09:13:17;;;;;;;3.03;1.80;;;;;;;18.66;58.41;101702.41;6243547;28;20045;-74
2022/09/04 09:16:20;;;;;;;3.15;1.75;;;;;;;18.70;58.06;101703.91;6257893;28;20049;-74
2022/09/04 09:19:42;;;;;;;2.50;1.70;;;;;;;18.87;57.98;101700.88;6258900;28;20416;-74
2022/09/04 09:23:23;;;;;;;3.17;1.75;;;;;;;19.05;56.62;101709.34;6270918;28;20394;-74
2022/09/04 09:26:29;;;;;;;3.40;1.75;;;;;;;19.11;56.81;101703.56;6259796;28;20045;-73
2022/09/04 09:30:01;;;;;;;2.47;1.50;;;;;;;19.11;56.79;101706.22;6254091;28;20041;-74
2022/09/04 09:33:32;;;;;;;3.50;1.85;;;;;;;19.12;56.25;101704.41;6241720;28;20041;-74
2022/09/04 09:37:02;;;;;;;2.83;1.60;;;;;;;19.13;56.53;101703.47;6227293;28;20049;-74
2022/09/04 09:40:22;;;;;;;3.25;1.52;;;;;;;19.18;56.80;101701.31;6230262;28;20497;-75
2022/09/04 09:43:55;;;;;;;3.65;1.20;;;;;;;19.28;56.43;101694.31;6245883;28;20416;-74
2022/09/04 09:47:32;;;;;;;2.67;1.60;;;;;;;19.46;55.94;101692.94;6246628;28;20136;-75
2022/09/04 09:51:20;;;;;;;2.60;1.60;;;;;;;19.62;55.22;101694.44;6226781;28;20046;-75
2022/09/04 09:54:42;;;;;;;2.47;1.30;;;;;;;19.67;54.90;101693.16;6231116;28;20052;-75
2022/09/04 09:58:21;;;;;;;5.60;1.70;;;;;;;19.77;54.93;101704.81;6251166;28;20504;-75
2022/09/04 10:01:41;;;;;;;4.43;1.63;;;;;;;19.89;54.29;101704.81;6225142;28;20053;-75
2022/09/04 10:05:13;;;;;;;1.67;1.20;;;;;;;19.95;54.04;101709.69;6227710;28;20049;-74
2022/09/04 10:08:39;;;;;;;3.33;1.50;;;;;;;20.01;53.67;101704.72;6250783;28;20041;-74
2022/09/04 10:12:09;;;;;;;5.43;2.25;;;;;;;20.04;53.73;101705.47;6222750;28;20057;-75
2022/09/04 10:15:36;;;;;;;;;;;;;;;20.12;53.50;101706.56;6231479;28;20416;-75
2022/09/04 10:19:10;;;;;;;3.35;1.60;;;;;;;20.18;53.52;101706.06;6255692;28;20334;-75
2022/09/04 10:22:36;;;;;;;2.15;1.33;;;;;;;20.41;52.30;101712.25;6212450;28;20053;-75
2022/09/04 10:25:56;;;;;;;1.92;1.30;;;;;;;20.59;51.70;101707.31;6227014;28;20049;-74
2022/09/04 10:29:35;;;;;;;4.18;1.83;;;;;;;20.68;51.89;101697.72;6264839;28;20128;-75
2022/09/04 10:33:02;;;;;;;2.72;1.58;;;;;;;20.87;51.20;101695.22;6250399;28;20129;-74
2022/09/04 10:36:21;;;;;;;3.75;1.58;;;;;;;20.93;51.20;101697.38;6244532;28;20046;-75
2022/09/04 10:43:11;;;;;;;2.78;1.55;;;;;;;21.18;50.63;101690.03;6243985;28;20046;-75
2022/09/04 10:46:16;;;;;;;;;;;;;;;21.41;49.51;101694.34;6245305;28;20061;-74
2022/09/04 10:49:30;;;;;;;2.30;1.45;;;;;;;21.50;49.24;101693.56;6237381;28;19929;-75
2022/09/04 10:52:52;;;;;;;3.90;1.48;;;;;;;21.54;49.58;101688.81;6249224;28;20046;-74
2022/09/04 10:56:01;;;;;;;1.92;1.40;;;;;;;;;;6223838;28;20046;-75
2022/09/04 10:59:33;;;;;;;2.92;1.50;;;;;;;21.74;49.23;101689.78;6224062;28;20056;-74
2022/09/04 11:03:03;;;;;;;3.10;1.77;;;;;;;21.93;48.60;101683.69;6223455;28;20409;-75
2022/09/04 11:06:41;;;;;;;5.10;1.20;;;;;;;22.03;48.90;101687.28;6223555;28;20049;-75
2022/09/04 11:09:56;;;;;;;1.88;1.40;;;;;;;22.27;47.47;101687.00;6223557;28;20065;-75
2022/09/04 11:13:28;;;;;;;1.83;1.40;;;;;;;22.50;46.91;101687.63;6223606;28;20060;-75
2022/09/04 11:16:47;;;;;;;1.52;1.25;;;;;;;22.69;46.56;101686.84;6223361;28;20485;-75
2022/09/04 11:20:27;;;;;;;2.13;1.30;;;;;;;22.85;45.82;101680.94;6223106;28;20453;-76
2022/09/04 11:24:03;;;;;;;3.60;1.20;;;;;;;23.03;45.65;101676.63;6223335;28;20413;-75
2022/09/04 11:27:48;;;;;;;1.60;1.33;;;;;;;23.36;44.36;101671.81;6187854;28;20521;-75
2022/09/04 11:31:03;;;;;;;2.92;1.40;;;;;;;23.68;43.99;101666.16;6222946;28;20049;-76
2022/09/04 11:34:37;;;;;;;1.92;1.02;;;;;;;23.91;43.47;101663.97;6222796;28;20046;-75
2022/09/04 11:38:00;;;;;;;1.33;1.10;;;;;;;24.24;42.58;101667.94;6223135;28;20060;-75
2022/09/04 11:41:27;;;;;;;1.92;1.50;;;;;;;24.41;42.60;101667.19;6222622;28;20057;-76
2022/09/04 11:44:45;;;;;;;1.55;1.10;;;;;;;24.61;41.17;101667.06;6222625;28;20050;-75
2022/09/04 11:48:10;;;;;;;1.85;1.20;;;;;;;24.72;41.52;101662.31;6222879;28;20061;-75
2022/09/04 11:51:33;;;;;;;2.95;1.48;;;;;;;24.79;40.00;101665.25;6222136;28;20409;-75
2022/09/04 11:55:10;;;;;;;2.78;1.10;;;;;;;24.86;40.25;101676.25;6222532;28;20123;-74
2022/09/04 11:58:39;;;;;;;2.22;1.30;;;;;;;25.00;40.00;101665.78;6222531;28;20049;-75
2022/09/04 12:01:56;;;;;;;;;;;;;;;25.20;39.86;101655.75;6222607;28;20410;-74
2022/09/04 12:05:15;;;;;;;5.32;1.30;;;;;;;25.49;39.15;101651.94;6222360;28;19929;-75
2022/09/04 12:08:37;;;;;;;2.60;1.05;;;;;;;25.75;38.36;101652.81;6222523;28;20050;-75
2022/09/04 12:12:01;;;;;;;2.38;1.45;;;;;;;26.00;38.19;101655.66;6222003;28;20054;-75
2022/09/04 12:15:39;;;;;;;1.92;1.13;;;;;;;26.20;37.70;101654.41;6233380;28;20493;-75
2022/09/04 12:19:12;;;;;;;3.88;1.45;;;;;;;26.35;36.88;101640.31;6248751;28;20041;-76
2022/09/04 12:22:40;;;;;;;1.15;1.05;;;;;;;26.49;37.13;101647.81;6227935;28;20042;-75
2022/09/04 12:26:15;;;;;;;1.63;1.05;;;;;;;26.72;36.72;101648.03;6238319;28;20100;-76
2022/09/04 12:29:39;;;;;;;2.53;1.20;;;;;;;26.90;36.25;101650.59;6243074;28;20045;-75
2022/09/04 12:33:02;;;;;;;1.52;1.10;;;;;;;27.20;35.94;101646.41;6246429;28;20053;-75
2022/09/04 12:36:43;;;;;;;2.13;1.05;;;;;;;27.26;35.88;101633.09;6246208;28;20049;-75
2022/09/04 12:40:12;;;;;;;2.28;1.17;;;;;;;27.36;35.21;101646.41;6246110;28;20057;-75
2022/09/04 12:43:30;;;;;;;2.38;1.08;;;;;;;27.44;35.15;101645.56;6246345;28;20500;-74
2022/09/04 12:46:49;;;;;;;2.03;1.00;;;;;;;27.53;35.01;101642.69;6246070;28;20057;-74
2022/09/04 12:50:09;;;;;;;2.00;1.30;;;;;;;27.32;35.68;101645.06;6245017;28;20330;-75
2022/09/04 12:53:49;;;;;;;2.20;1.23;;;;;;;27.40;35.60;101638.84;6246477;28;20132;-75
2022/09/04 12:57:07;;;;;;;1.33;1.00;;;;;;;27.47;35.76;101648.75;6243633;28;20069;-75
2022/09/04 13:00:11;;;;;;;2.25;1.10;;;;;;;27.64;35.72;101656.84;6246058;28;20045;-73
2022/09/04 13:03:25;;;;;;;1.48;0.93;;;;;;;27.70;35.51;101659.69;6246381;28;20175;-73
2022/09/04 13:06:39;;;;;;;2.13;1.15;;;;;;;27.70;34.92;101656.16;6250935;28;20049;-73
2022/09/04 13:09:51;;;;;;;1.50;1.20;;;;;;;27.67;35.14;101648.41;6250693;28;20056;-73
2022/09/04 13:13:08;;;;;;;1.50;1.27;;;;;;;27.71;35.56;101650.59;6251163;28;20053;-73
2022/09/04 13:16:20;;;;;;;1.90;1.20;;;;;;;27.75;35.06;101654.69;6250533;28;20064;-73
2022/09/04 13:19:28;;;;;;;1.20;0.93;;;;;;;27.93;35.54;101654.44;6250843;28;20128;-75
2022/09/04 13:22:38;;;;;;;1.87;1.30;;;;;;;27.98;35.01;101659.31;6250407;28;20049;-73
2022/09/04 13:25:54;;;;;;;2.03;1.30;;;;;;;27.99;34.91;101658.31;6250520;28;20284;-76
2022/09/04 13:29:14;;;;;;;2.20;1.20;;;;;;;27.96;34.92;101664.91;6250372;28;20052;-73
2022/09/04 13:32:34;;;;;;;1.98;1.35;;;;;;;28.10;35.04;101657.94;6250298;28;20529;-75
2022/09/04 13:35:57;;;;;;;1.20;1.10;;;;;;;28.09;35.05;101668.94;6250043;28;20413;-75
2022/09/04 13:39:22;;;;;;;2.45;1.30;;;;;;;28.10;35.00;101663.34;6250205;28;20049;-74
2022/09/04 13:42:56;;;;;;;2.58;1.15;;;;;;;28.11;34.71;101664.16;6250133;28;20060;-75
2022/09/04 13:46:03;;;;;;;1.58;1.33;;;;;;;28.10;35.28;101657.94;6249960;28;20055;-73
2022/09/04 13:49:10;;;;;;;1.50;1.17;;;;;;;27.96;35.44;101658.66;6250019;28;20056;-74
2022/09/04 13:52:16;;;;;;;1.80;1.23;;;;;;;27.88;35.95;101662.22;6249795;28;20052;-73
2022/09/04 13:55:22;;;;;;;1.85;1.30;;;;;;;27.95;35.39;101665.91;6249564;28;20497;-73
2022/09/04 13:58:29;;;;;;;1.77;1.33;;;;;;;27.89;35.24;101668.47;6249923;28;20455;-74
2022/09/04 14:01:34;;;;;;;1.35;1.05;;;;;;;27.88;36.05;101664.91;6249472;28;20057;-75
2022/09/04 14:04:42;;;;;;;2.70;1.30;;;;;;;27.98;35.88;101671.00;6249693;28;20053;-75
2022/09/04 14:07:49;;;;;;;2.47;1.30;;;;;;;28.14;35.42;101664.66;6249664;28;20046;-74
2022/09/04 14:11:10;;;;;;;1.98;1.00;;;;;;;28.32;35.18;101667.97;6249347;28;20045;-74
2022/09/04 14:14:32;;;;;;;1.05;0.93;;;;;;;28.50;34.47;101670.47;6249100;28;20060;-76
2022/09/04 14:17:41;;;;;;;1.65;1.20;;;;;;;28.65;34.27;101665.13;6249420;28;20413;-74
2022/09/04 14:20:50;;;;;;;1.38;1.05;;;;;;;28.82;34.41;101665.88;6304903;23;20578;-73
2022/09/04 14:24:03;;;;;;;2.15;1.00;;;;;;;28.78;33.83;101661.84;6265851;28;20056;-73
2022/09/04 14:27:11;;;;;;;2.08;1.10;;;;;;;28.74;34.35;101666.75;6273664;28;20124;-73
2022/09/04 14:30:14;;;;;;;;;;;;;;;28.70;33.61;101673.53;6274070;28;20044;-73
2022/09/04 14:33:26;;;;;;;2.03;0.80;;;;;;;28.70;33.45;101664.59;6273784;28;19921;-73
2022/09/04 14:36:35;;;;;;;1.98;1.30;;;;;;;28.75;33.80;101673.00;6273552;28;20056;-75
2022/09/04 14:39:47;;;;;;;1.00;0.90;;;;;;;28.80;33.98;101670.63;6271664;28;20049;-73
2022/09/04 14:42:57;;;;;;;1.65;1.08;;;;;;;28.64;33.75;101671.56;6266039;28;20128;-72
2022/09/04 14:46:10;;;;;;;1.30;1.20;;;;;;;28.53;33.97;101664.72;6267989;28;20103;-73
2022/09/04 14:49:16;;;;;;;1.50;1.40;;;;;;;28.58;34.05;101661.47;6269551;28;20041;-73
2022/09/04 14:52:22;;;;;;;2.17;1.13;;;;;;;28.46;33.92;101663.72;6271999;28;20053;-74
2022/09/04 14:55:26;;;;;;;3.00;1.40;;;;;;;28.48;34.56;101669.81;6272627;28;20045;-75
2022/09/04 14:58:33;;;;;;;1.92;1.17;;;;;;;28.45;34.70;101672.84;6272466;28;20045;-75
2022/09/04 15:01:39;;;;;;;2.05;1.40;;;;;;;28.39;34.48;101670.88;6272976;28;20054;-75
2022/09/04 15:04:47;;;;;;;1.80;1.23;;;;;;;28.25;35.16;101675.13;6272343;28;20056;-73
2022/09/04 15:07:52;;;;;;;1.05;1.00;;;;;;;28.21;35.28;101672.94;6272720;28;20512;-73
2022/09/04 15:10:59;;;;;;;2.60;1.30;;;;;;;28.26;34.96;101666.00;6271728;28;20045;-73
2022/09/04 15:14:06;;;;;;;6.75;2.60;;;;;;;28.31;35.40;101673.56;6272475;28;20053;-73
2022/09/04 15:17:11;;;;;;;1.55;1.15;;;;;;;28.42;34.96;101675.91;6271703;28;20056;-73
2022/09/04 15:20:21;;;;;;;1.73;1.38;;;;;;;28.52;34.73;101675.69;6272229;28;20067;-73